Time;durP1;ratioP1;P1;durP2;ratioP2;P2;SDS_P1;SDS_P2;PMS_P1;PMS_P2;Temp;Humidity;BMP_temperature;BMP_pressure;BME280_temperature;BME280_humidity;BME280_pressure;Samples;Min_cycle;Max_cycle;Signal;HPM_P1;HPM_P2
2023/08/25 00:02:47;;;;;;;5.47;5.17;;;22.40;61.50;;;;;;6201857;28;20232;-82
2023/08/25 00:05:52;;;;;;;5.40;5.10;;;22.30;61.50;;;;;;6210314;28;20273;-82
2023/08/25 00:08:56;;;;;;;5.50;5.30;;;22.30;61.60;;;;;;6208357;28;20745;-82
2023/08/25 00:11:59;;;;;;;5.43;5.13;;;22.30;61.70;;;;;;6202095;28;20322;-80
2023/08/25 00:15:04;;;;;;;5.93;5.60;;;22.30;61.60;;;;;;6214557;28;20251;-82
2023/08/25 00:18:08;;;;;;;5.70;5.40;;;22.30;61.40;;;;;;6211712;28;20239;-82
2023/08/25 00:21:11;;;;;;;5.30;5.20;;;22.30;61.10;;;;;;6217037;28;20246;-81
2023/08/25 00:24:15;;;;;;;5.63;5.27;;;22.40;61.00;;;;;;6203384;28;20239;-83
2023/08/25 00:27:18;;;;;;;5.90;5.40;;;22.40;61.10;;;;;;6216690;28;20238;-82
2023/08/25 00:30:23;;;;;;;5.33;5.03;;;22.40;61.00;;;;;;6217974;28;20231;-82
2023/08/25 00:33:26;;;;;;;4.90;4.73;;;22.40;61.10;;;;;;6215907;28;20275;-81
2023/08/25 00:36:29;;;;;;;6.93;6.33;;;22.40;61.40;;;;;;6206770;28;20367;-81
2023/08/25 00:39:32;;;;;;;6.40;5.83;;;22.30;61.40;;;;;;6215539;28;20827;-81
2023/08/25 00:42:35;;;;;;;5.80;5.60;;;22.30;61.40;;;;;;6200419;28;20250;-81
2023/08/25 00:45:41;;;;;;;6.53;5.80;;;22.30;61.70;;;;;;6199034;28;20257;-81
2023/08/25 00:48:44;;;;;;;6.57;6.17;;;22.20;61.50;;;;;;6217318;28;20526;-81
2023/08/25 00:51:47;;;;;;;6.33;5.93;;;22.20;61.60;;;;;;6215556;28;20263;-81
2023/08/25 00:54:54;;;;;;;6.17;5.67;;;22.10;61.90;;;;;;6205875;28;20308;-80
2023/08/25 00:57:58;;;;;;;6.30;6.00;;;22.10;62.10;;;;;;6194354;28;20243;-80
2023/08/25 01:01:04;;;;;;;6.97;6.57;;;22.00;62.10;;;;;;6218780;28;20856;-81
2023/08/25 01:04:08;;;;;;;5.70;5.50;;;22.00;62.10;;;;;;6212357;28;20258;-80
2023/08/25 01:07:11;;;;;;;5.80;5.50;;;22.00;62.30;;;;;;6201514;28;20295;-81
2023/08/25 01:10:15;;;;;;;5.10;4.90;;;22.00;62.20;;;;;;6211585;28;20309;-79
2023/08/25 01:13:24;;;;;;;5.73;5.53;;;22.00;62.50;;;;;;6221593;28;20242;-83
2023/08/25 01:16:34;;;;;;;5.80;5.50;;;22.00;62.70;;;;;;6210684;28;20244;-81
2023/08/25 01:19:51;;;;;;;6.30;6.00;;;22.00;62.60;;;;;;6213698;28;20249;-81
2023/08/25 01:23:04;;;;;;;6.00;5.60;;;22.00;62.50;;;;;;6209757;28;20276;-83
2023/08/25 01:26:09;;;;;;;6.47;5.97;;;21.90;62.70;;;;;;6210324;28;20302;-81
2023/08/25 01:29:12;;;;;;;6.20;5.80;;;21.90;62.70;;;;;;6217000;28;20738;-82
2023/08/25 01:32:15;;;;;;;6.47;6.07;;;21.90;62.90;;;;;;6213888;28;20263;-81
2023/08/25 01:35:19;;;;;;;7.10;6.63;;;21.90;63.00;;;;;;6211168;28;20739;-81
2023/08/25 01:38:27;;;;;;;6.83;6.50;;;21.90;63.20;;;;;;6218091;28;20239;-81
2023/08/25 01:41:36;;;;;;;6.60;6.30;;;21.90;63.50;;;;;;6215732;28;20243;-81
2023/08/25 01:44:42;;;;;;;7.90;6.67;;;21.90;63.60;;;;;;6216495;28;20358;-82
2023/08/25 01:47:47;;;;;;;6.87;6.37;;;21.90;63.50;;;;;;6212386;28;20334;-81
2023/08/25 01:50:50;;;;;;;7.13;6.83;;;21.90;64.20;;;;;;6225026;28;20314;-81
2023/08/25 01:53:55;;;;;;;6.90;6.50;;;21.90;63.90;;;;;;6211277;28;20335;-80
2023/08/25 01:56:59;;;;;;;6.83;6.43;;;21.90;63.90;;;;;;6208122;28;20266;-81
2023/08/25 02:00:04;;;;;;;7.00;6.47;;;21.80;64.00;;;;;;6216834;28;20725;-79
2023/08/25 02:03:07;;;;;;;6.93;6.50;;;21.90;64.00;;;;;;6196835;28;20325;-80
2023/08/25 02:06:11;;;;;;;7.50;7.10;;;21.80;64.20;;;;;;6213529;28;20365;-80
2023/08/25 02:09:14;;;;;;;5.87;5.67;;;21.80;64.10;;;;;;6215866;28;20235;-81
2023/08/25 02:12:19;;;;;;;6.13;5.83;;;21.80;64.10;;;;;;6194081;28;20239;-80
2023/08/25 02:15:22;;;;;;;6.40;6.10;;;21.80;64.00;;;;;;6209254;28;20358;-78
2023/08/25 02:18:25;;;;;;;5.93;5.73;;;21.80;64.10;;;;;;6200624;28;20247;-81
2023/08/25 02:21:28;;;;;;;5.07;4.97;;;21.70;64.10;;;;;;6200471;28;20305;-81
2023/08/25 02:24:31;;;;;;;5.70;5.40;;;21.70;64.10;;;;;;6214702;28;20243;-80
2023/08/25 02:27:36;;;;;;;6.03;5.73;;;21.80;64.30;;;;;;6200766;28;20643;-79
2023/08/25 02:30:39;;;;;;;5.83;5.63;;;21.70;64.40;;;;;;6193826;28;20847;-81
2023/08/25 02:33:43;;;;;;;5.77;5.57;;;21.70;64.60;;;;;;6206431;28;20239;-82
2023/08/25 02:36:46;;;;;;;6.57;6.27;;;21.70;64.70;;;;;;6208616;28;20270;-78
2023/08/25 02:39:50;;;;;;;6.67;6.37;;;21.70;64.70;;;;;;6206822;28;20247;-81
2023/08/25 02:42:55;;;;;;;6.40;6.00;;;21.70;64.90;;;;;;6208373;28;20255;-80
2023/08/25 02:46:00;;;;;;;6.70;6.10;;;21.70;65.00;;;;;;6214631;28;20317;-81
2023/08/25 02:49:03;;;;;;;7.97;7.13;;;21.70;65.20;;;;;;6202289;28;20422;-78
2023/08/25 02:52:07;;;;;;;6.63;6.23;;;21.70;65.30;;;;;;6211807;28;20333;-80
2023/08/25 02:55:11;;;;;;;7.87;7.27;;;21.70;65.30;;;;;;6206194;28;20236;-78
2023/08/25 02:58:16;;;;;;;6.87;6.40;;;21.70;65.30;;;;;;6202016;28;20318;-79
2023/08/25 03:01:20;;;;;;;6.57;6.17;;;21.70;65.30;;;;;;6204726;28;20322;-78
2023/08/25 03:04:23;;;;;;;6.90;6.50;;;21.70;65.40;;;;;;6205241;28;20239;-81
2023/08/25 03:07:26;;;;;;;6.90;6.50;;;21.70;65.40;;;;;;6212892;28;20308;-80
2023/08/25 03:10:29;;;;;;;7.10;6.67;;;21.70;65.50;;;;;;6196569;28;20235;-78
2023/08/25 03:13:34;;;;;;;7.43;6.80;;;21.60;65.90;;;;;;6204191;28;20243;-81
2023/08/25 03:16:37;;;;;;;7.80;7.37;;;21.50;66.00;;;;;;6202696;28;20328;-81
2023/08/25 03:19:41;;;;;;;6.90;6.60;;;21.50;66.00;;;;;;6206859;28;20266;-83
2023/08/25 03:22:45;;;;;;;6.73;6.30;;;21.50;66.10;;;;;;6197370;28;20243;-79
2023/08/25 03:25:48;;;;;;;7.60;7.00;;;21.50;66.00;;;;;;6202981;28;20228;-80
2023/08/25 03:28:53;;;;;;;6.87;6.17;;;21.40;66.20;;;;;;6218615;28;20329;-78
2023/08/25 03:31:56;;;;;;;6.37;6.07;;;21.40;66.30;;;;;;6205921;28;20243;-80
2023/08/25 03:34:59;;;;;;;6.30;6.00;;;21.40;66.30;;;;;;6198484;28;20325;-81
2023/08/25 03:38:02;;;;;;;6.83;6.53;;;21.40;66.20;;;;;;6216550;28;20298;-81
2023/08/25 03:41:08;;;;;;;6.60;6.17;;;21.40;66.40;;;;;;6204340;28;20315;-79
2023/08/25 03:44:13;;;;;;;6.27;5.97;;;21.40;66.50;;;;;;6210048;28;20750;-78
2023/08/25 03:47:16;;;;;;;7.60;7.20;;;21.30;66.40;;;;;;6202855;28;20328;-78
2023/08/25 03:50:20;;;;;;;7.03;6.50;;;21.40;66.60;;;;;;6214609;28;20232;-82
2023/08/25 03:53:23;;;;;;;6.80;6.50;;;21.40;66.70;;;;;;6210142;28;20734;-76
2023/08/25 03:56:26;;;;;;;6.40;6.10;;;21.40;66.60;;;;;;6202484;28;20302;-76
2023/08/25 03:59:31;;;;;;;6.93;6.63;;;21.40;66.60;;;;;;6214172;28;20293;-76
2023/08/25 04:02:34;;;;;;;6.80;6.40;;;21.40;66.60;;;;;;6200119;28;20314;-76
2023/08/25 04:05:37;;;;;;;6.90;6.70;;;21.40;66.60;;;;;;6214073;28;21015;-74
2023/08/25 04:08:40;;;;;;;7.03;6.73;;;21.40;66.60;;;;;;6210203;28;20254;-74
2023/08/25 04:11:43;;;;;;;6.27;6.07;;;21.40;66.60;;;;;;6206657;28;20665;-76
2023/08/25 04:14:48;;;;;;;6.63;6.33;;;21.30;66.80;;;;;;6205083;28;20269;-75
2023/08/25 04:17:51;;;;;;;7.63;7.07;;;21.30;66.90;;;;;;6205536;28;20329;-76
2023/08/25 04:20:55;;;;;;;7.33;6.93;;;21.30;67.20;;;;;;6217333;28;20769;-75
2023/08/25 04:23:58;;;;;;;6.93;6.63;;;21.30;67.50;;;;;;6212324;28;20235;-74
2023/08/25 04:27:01;;;;;;;6.40;6.10;;;21.30;67.40;;;;;;6207001;28;20332;-77
2023/08/25 04:30:07;;;;;;;7.13;6.83;;;21.20;67.30;;;;;;6204215;28;20316;-76
2023/08/25 04:33:11;;;;;;;7.13;6.63;;;21.20;67.50;;;;;;6210368;28;20264;-75
2023/08/25 04:36:14;;;;;;;10.17;9.17;;;21.20;67.60;;;;;;6205975;28;20238;-76
2023/08/25 04:39:17;;;;;;;9.10;8.30;;;21.10;68.00;;;;;;6205803;28;20365;-76
2023/08/25 04:42:20;;;;;;;7.13;6.80;;;21.20;67.80;;;;;;6203072;28;20227;-75
2023/08/25 04:45:26;;;;;;;8.33;7.77;;;21.20;67.70;;;;;;6214095;28;20239;-75
2023/08/25 04:48:31;;;;;;;7.83;7.43;;;21.30;67.50;;;;;;6216591;28;20321;-75
2023/08/25 04:51:34;;;;;;;7.87;7.23;;;21.40;67.50;;;;;;6212060;28;20893;-77
2023/08/25 04:54:37;;;;;;;9.17;8.57;;;21.50;67.40;;;;;;6210718;28;20240;-73
2023/08/25 04:57:41;;;;;;;8.00;7.30;;;21.50;67.70;;;;;;6216179;28;20242;-77
2023/08/25 05:00:50;;;;;;;7.97;7.50;;;21.50;67.70;;;;;;6212577;28;20238;-78
2023/08/25 05:03:53;;;;;;;9.33;8.60;;;21.60;67.20;;;;;;6211681;28;20329;-76
2023/08/25 05:06:56;;;;;;;14.17;12.90;;;21.60;67.20;;;;;;6212612;28;20724;-76
2023/08/25 05:09:59;;;;;;;9.40;8.60;;;21.50;67.10;;;;;;6216697;28;20243;-78
2023/08/25 05:13:03;;;;;;;8.60;8.00;;;21.50;67.10;;;;;;6204214;28;20270;-79
2023/08/25 05:16:08;;;;;;;11.33;8.77;;;21.60;67.00;;;;;;6213466;28;20251;-80
2023/08/25 05:19:13;;;;;;;8.23;7.53;;;21.50;66.80;;;;;;6211037;28;20245;-78
2023/08/25 05:22:17;;;;;;;8.50;7.63;;;21.50;66.70;;;;;;6205118;28;20236;-79
2023/08/25 05:25:21;;;;;;;8.53;7.77;;;21.60;66.70;;;;;;6212690;28;20404;-79
2023/08/25 05:28:24;;;;;;;7.23;6.83;;;21.50;66.80;;;;;;6208092;28;20315;-80
2023/08/25 05:31:31;;;;;;;8.10;7.23;;;21.70;66.80;;;;;;6206394;28;20282;-79
2023/08/25 05:34:34;;;;;;;7.60;7.10;;;21.70;66.80;;;;;;6208266;28;20243;-80
2023/08/25 05:37:38;;;;;;;8.60;7.90;;;21.90;66.70;;;;;;6207328;28;20746;-83
2023/08/25 05:40:42;;;;;;;7.50;7.00;;;22.10;66.30;;;;;;6205857;28;20235;-78
2023/08/25 05:43:47;;;;;;;9.63;8.70;;;22.30;66.00;;;;;;6212534;28;20285;-80
2023/08/25 05:46:52;;;;;;;9.80;8.80;;;22.40;65.70;;;;;;6219608;28;20262;-78
2023/08/25 05:49:55;;;;;;;8.27;7.70;;;22.30;65.00;;;;;;6212288;28;20247;-80
2023/08/25 05:52:58;;;;;;;8.27;7.57;;;22.30;65.10;;;;;;6210692;28;20231;-79
2023/08/25 05:56:02;;;;;;;8.90;7.73;;;22.20;65.40;;;;;;6213661;28;20358;-81
2023/08/25 05:59:06;;;;;;;8.67;8.07;;;22.10;65.70;;;;;;6209185;28;20259;-82
2023/08/25 06:02:10;;;;;;;9.43;8.63;;;22.10;65.90;;;;;;6215110;28;20632;-79
2023/08/25 06:05:13;;;;;;;8.63;8.00;;;22.30;65.60;;;;;;6202120;28;20314;-78
2023/08/25 06:08:16;;;;;;;8.67;7.87;;;22.40;65.50;;;;;;6203375;28;20266;-80
2023/08/25 06:11:19;;;;;;;8.20;7.30;;;22.50;64.80;;;;;;6213015;28;20274;-79
2023/08/25 06:14:23;;;;;;;8.93;7.93;;;22.80;64.60;;;;;;6207462;28;20270;-78
2023/08/25 06:17:28;;;;;;;16.80;9.60;;;22.90;64.30;;;;;;6206742;28;20363;-79
2023/08/25 06:20:31;;;;;;;15.30;9.43;;;23.10;63.60;;;;;;6204623;28;20751;-78
2023/08/25 06:23:34;;;;;;;8.33;7.63;;;23.30;63.30;;;;;;6210107;28;20393;-80
2023/08/25 06:26:38;;;;;;;12.17;10.97;;;23.40;63.20;;;;;;6209124;28;20242;-79
2023/08/25 06:29:43;;;;;;;10.57;9.57;;;23.50;62.90;;;;;;6200372;28;20246;-80
2023/08/25 06:32:47;;;;;;;10.60;8.50;;;24.00;62.50;;;;;;6197959;28;20239;-78
2023/08/25 06:35:51;;;;;;;9.30;8.50;;;24.80;60.90;;;;;;6207646;28;20262;-78
2023/08/25 06:38:54;;;;;;;11.00;8.60;;;24.80;60.00;;;;;;6204606;28;20440;-77
2023/08/25 06:41:59;;;;;;;9.70;8.80;;;24.50;59.80;;;;;;6204380;28;20340;-78
2023/08/25 06:45:02;;;;;;;14.27;8.47;;;24.20;60.00;;;;;;6213916;28;20370;-79
2023/08/25 06:48:07;;;;;;;9.50;8.43;;;23.90;60.90;;;;;;6209206;28;20255;-78
2023/08/25 06:51:12;;;;;;;12.43;11.23;;;24.00;60.70;;;;;;6196966;28;20239;-76
2023/08/25 06:54:15;;;;;;;9.13;8.43;;;24.00;60.50;;;;;;6205289;28;20239;-77
2023/08/25 06:57:18;;;;;;;8.70;8.10;;;23.90;61.00;;;;;;6209033;28;20896;-78
2023/08/25 07:00:24;;;;;;;11.83;8.23;;;24.00;60.70;;;;;;6208389;28;20739;-77
2023/08/25 07:03:28;;;;;;;9.30;8.50;;;24.00;60.90;;;;;;6200838;28;20362;-78
2023/08/25 07:06:34;;;;;;;9.70;8.77;;;24.00;60.60;;;;;;6205805;28;20243;-75
2023/08/25 07:09:37;;;;;;;9.40;8.43;;;24.00;60.40;;;;;;6204254;28;20263;-78
2023/08/25 07:12:42;;;;;;;9.73;9.03;;;24.10;60.60;;;;;;6200623;28;20240;-78
2023/08/25 07:15:45;;;;;;;9.13;8.53;;;24.20;60.60;;;;;;6210213;28;20837;-82
2023/08/25 07:18:50;;;;;;;9.23;8.10;;;24.30;60.20;;;;;;6208896;28;20250;-82
2023/08/25 07:21:53;;;;;;;8.70;8.03;;;24.30;59.90;;;;;;6195836;28;20235;-84
2023/08/25 07:24:58;;;;;;;8.53;7.87;;;24.40;60.00;;;;;;6207632;28;20232;-85
2023/08/25 07:28:01;;;;;;;9.00;8.17;;;24.50;59.60;;;;;;6201059;28;20247;-85
2023/08/25 07:31:05;;;;;;;8.87;8.03;;;24.60;59.20;;;;;;6210053;28;20271;-82
2023/08/25 07:34:09;;;;;;;10.40;9.33;;;24.80;59.00;;;;;;6208322;28;20374;-75
2023/08/25 07:37:12;;;;;;;7.90;7.30;;;24.80;58.80;;;;;;6184574;28;20231;-76
2023/08/25 07:40:15;;;;;;;7.97;7.40;;;24.70;59.30;;;;;;6198381;28;20324;-74
2023/08/25 07:43:18;;;;;;;8.93;8.20;;;24.80;58.80;;;;;;6203993;28;20302;-75
2023/08/25 07:46:22;;;;;;;8.97;8.43;;;24.90;58.60;;;;;;6208158;28;20365;-77
2023/08/25 07:49:26;;;;;;;10.17;8.47;;;25.00;58.00;;;;;;6208432;28;20239;-78
2023/08/25 07:52:29;;;;;;;9.40;8.63;;;25.00;58.40;;;;;;6202541;28;20263;-77
2023/08/25 07:55:34;;;;;;;8.73;8.17;;;25.20;58.30;;;;;;6203080;28;20818;-76
2023/08/25 07:58:37;;;;;;;8.40;7.70;;;25.20;57.90;;;;;;6203678;28;20342;-74
2023/08/25 08:01:41;;;;;;;9.43;8.53;;;25.30;58.00;;;;;;6195494;28;20235;-75
2023/08/25 08:04:45;;;;;;;9.27;8.30;;;25.50;58.00;;;;;;6198587;28;20252;-78
2023/08/25 08:07:48;;;;;;;7.43;6.93;;;25.60;56.90;;;;;;6195461;28;20730;-77
2023/08/25 08:10:52;;;;;;;9.37;8.47;;;25.70;56.40;;;;;;6203685;28;20231;-80
2023/08/25 08:13:55;;;;;;;7.87;7.53;;;25.70;56.50;;;;;;6199108;28;20325;-77
2023/08/25 08:16:58;;;;;;;8.03;7.47;;;25.80;56.50;;;;;;6206557;28;20254;-79
2023/08/25 08:20:05;;;;;;;7.87;7.27;;;25.80;56.10;;;;;;6198144;28;20247;-79
2023/08/25 08:23:08;;;;;;;7.77;7.13;;;25.90;56.70;;;;;;6203528;28;20323;-78
2023/08/25 08:26:13;;;;;;;7.87;7.13;;;26.00;56.70;;;;;;6206234;28;20242;-77
2023/08/25 08:29:16;;;;;;;8.43;7.93;;;26.10;56.50;;;;;;6205710;28;20838;-81
2023/08/25 08:32:19;;;;;;;8.27;7.67;;;26.00;56.40;;;;;;6205933;28;20724;-81
2023/08/25 08:35:24;;;;;;;7.43;6.97;;;26.00;56.40;;;;;;6202736;28;20276;-79
2023/08/25 08:38:27;;;;;;;8.00;7.33;;;26.10;56.30;;;;;;6198097;28;20297;-83
2023/08/25 08:41:30;;;;;;;7.23;6.80;;;26.20;56.20;;;;;;6208145;28;20597;-80
2023/08/25 08:44:36;;;;;;;7.43;6.70;;;26.30;55.60;;;;;;6198337;28;20242;-77
2023/08/25 08:47:41;;;;;;;6.87;6.23;;;26.40;55.50;;;;;;6200134;28;20318;-80
2023/08/25 08:50:47;;;;;;;6.97;6.00;;;26.50;55.80;;;;;;6206155;28;20808;-78
2023/08/25 08:53:52;;;;;;;7.37;6.77;;;26.60;55.30;;;;;;6209639;28;20239;-81
2023/08/25 08:56:56;;;;;;;6.80;6.20;;;26.70;55.00;;;;;;6195402;28;20745;-82
2023/08/25 08:59:59;;;;;;;6.13;5.80;;;26.90;55.40;;;;;;6209698;28;20243;-83
2023/08/25 09:03:09;;;;;;;8.27;7.53;;;27.00;55.10;;;;;;6210498;28;20236;-82
2023/08/25 09:06:13;;;;;;;7.67;6.97;;;27.20;54.70;;;;;;6199247;28;20255;-81
2023/08/25 09:09:19;;;;;;;6.67;6.13;;;27.10;54.80;;;;;;6210895;28;20240;-82
2023/08/25 09:12:22;;;;;;;7.70;7.13;;;27.20;55.10;;;;;;6200849;28;20246;-82
2023/08/25 09:15:26;;;;;;;7.30;6.70;;;27.30;55.00;;;;;;6203803;28;20235;-81
2023/08/25 09:18:34;;;;;;;10.43;7.60;;;27.50;54.50;;;;;;6205317;28;20711;-78
2023/08/25 09:21:45;;;;;;;11.90;7.33;;;27.50;54.20;;;;;;6205822;28;20247;-79
2023/08/25 09:24:48;;;;;;;6.87;6.27;;;27.30;54.10;;;;;;6197045;28;20231;-80
2023/08/25 09:27:58;;;;;;;6.50;6.10;;;27.30;54.20;;;;;;6190909;28;20315;-81
2023/08/25 09:31:01;;;;;;;6.87;6.30;;;27.40;53.70;;;;;;6182525;28;20244;-81
2023/08/25 09:34:06;;;;;;;8.10;7.30;;;27.60;54.10;;;;;;6181287;28;20236;-80
2023/08/25 09:37:10;;;;;;;7.13;6.50;;;27.90;54.20;;;;;;6180593;28;20233;-84
2023/08/25 09:40:16;;;;;;;6.70;6.20;;;28.10;54.00;;;;;;6187682;28;20850;-81
2023/08/25 09:43:30;;;;;;;6.57;6.07;;;28.30;53.60;;;;;;6184311;28;20374;-82
2023/08/25 09:46:34;;;;;;;7.78;7.05;;;28.50;53.30;;;;;;6205056;28;20254;-82
2023/08/25 09:49:44;;;;;;;7.43;6.93;;;28.60;52.60;;;;;;6215955;28;20254;-82
2023/08/25 09:52:53;;;;;;;7.88;7.28;;;28.40;53.50;;;;;;6209425;28;20329;-83
2023/08/25 09:56:04;;;;;;;9.98;7.20;;;28.70;53.20;;;;;;6210583;28;20233;-82
2023/08/25 09:59:10;;;;;;;6.80;6.32;;;28.90;52.80;;;;;;6204371;28;20251;-81
2023/08/25 10:02:14;;;;;;;10.65;6.97;;;28.70;52.40;;;;;;6203579;28;20370;-82
2023/08/25 10:05:20;;;;;;;6.45;6.00;;;28.70;51.90;;;;;;6205111;28;20315;-81
2023/08/25 10:08:26;;;;;;;6.70;6.13;;;28.50;52.80;;;;;;6202562;28;20739;-84
2023/08/25 10:11:34;;;;;;;6.88;6.30;;;28.60;53.60;;;;;;6210270;28;20862;-83
2023/08/25 10:14:40;;;;;;;6.93;6.22;;;28.60;52.60;;;;;;6207869;28;20245;-82
2023/08/25 10:17:45;;;;;;;7.47;6.20;;;28.60;52.10;;;;;;6209865;28;20247;-79
2023/08/25 10:20:49;;;;;;;5.93;5.53;;;28.50;52.60;;;;;;6205177;28;20264;-79
2023/08/25 10:23:55;;;;;;;8.13;6.88;;;28.30;53.40;;;;;;6207290;28;20324;-78
2023/08/25 10:26:58;;;;;;;6.55;5.70;;;28.30;54.20;;;;;;6205221;28;20243;-78
2023/08/25 10:30:03;;;;;;;9.43;6.80;;;28.30;53.90;;;;;;6210758;28;20243;-78
2023/08/25 10:33:11;;;;;;;10.02;6.82;;;28.40;53.60;;;;;;6208317;28;20243;-79
2023/08/25 10:36:18;;;;;;;6.38;5.82;;;28.60;54.20;;;;;;6209513;28;20773;-78
2023/08/25 10:39:48;;;;;;;7.00;5.80;;;28.60;52.90;;;;;;6208480;28;20301;-80
2023/08/25 10:42:51;;;;;;;6.93;6.40;;;28.70;53.40;;;;;;6205647;28;20228;-79
2023/08/25 10:45:54;;;;;;;6.72;6.18;;;28.90;53.50;;;;;;6204247;28;20234;-80
2023/08/25 10:49:06;;;;;;;6.63;6.07;;;28.50;53.60;;;;;;6212083;28;20393;-76
2023/08/25 10:52:14;;;;;;;9.98;8.75;;;28.50;53.40;;;;;;6207254;28;20727;-79
2023/08/25 10:55:26;;;;;;;7.18;6.45;;;28.60;53.50;;;;;;6207235;28;20246;-79
2023/08/25 10:58:33;;;;;;;10.80;9.13;;;28.50;54.00;;;;;;6216805;28;20379;-78
2023/08/25 11:01:55;;;;;;;7.47;6.80;;;28.50;53.80;;;;;;6210679;28;20470;-81
2023/08/25 11:05:31;;;;;;;10.20;6.43;;;28.30;54.00;;;;;;6203071;28;20223;-81
2023/08/25 11:08:35;;;;;;;6.00;5.63;;;28.30;54.20;;;;;;6209729;28;20262;-81
2023/08/25 11:11:43;;;;;;;7.37;6.47;;;28.30;54.70;;;;;;6207416;28;20374;-76
2023/08/25 11:14:47;;;;;;;6.30;6.00;;;28.20;54.10;;;;;;6208009;28;20247;-76
2023/08/25 11:17:50;;;;;;;6.43;5.90;;;28.00;55.00;;;;;;6208452;28;20247;-76
2023/08/25 11:20:55;;;;;;;7.63;6.33;;;28.20;54.60;;;;;;6205254;28;20232;-80
2023/08/25 11:23:58;;;;;;;7.00;6.30;;;28.00;55.10;;;;;;6210175;28;20232;-79
2023/08/25 11:27:07;;;;;;;6.60;6.13;;;28.10;54.40;;;;;;6210553;28;20227;-78
2023/08/25 11:30:10;;;;;;;7.07;5.83;;;28.30;54.40;;;;;;6208011;28;20235;-78
2023/08/25 11:33:18;;;;;;;5.70;5.30;;;28.30;54.00;;;;;;6199152;28;20291;-78
2023/08/25 11:36:24;;;;;;;6.63;6.17;;;28.30;54.00;;;;;;6203533;28;20746;-77
2023/08/25 11:39:28;;;;;;;8.50;6.43;;;28.30;54.00;;;;;;6205392;28;20239;-78
2023/08/25 11:42:32;;;;;;;9.03;6.27;;;28.30;54.90;;;;;;6213777;28;20411;-80
2023/08/25 11:45:35;;;;;;;7.67;6.80;;;28.50;54.70;;;;;;6208723;28;20303;-78
2023/08/25 11:48:38;;;;;;;6.30;5.43;;;28.50;54.30;;;;;;6207459;28;20243;-79
2023/08/25 11:51:42;;;;;;;5.83;5.43;;;28.50;54.40;;;;;;6210436;28;20755;-80
2023/08/25 11:54:46;;;;;;;5.95;5.55;;;28.70;53.70;;;;;;6204670;28;20241;-80
2023/08/25 11:57:53;;;;;;;6.17;5.50;;;28.70;53.70;;;;;;6212451;28;20271;-80
2023/08/25 12:01:00;;;;;;;5.95;5.45;;;28.70;53.00;;;;;;6197694;28;20736;-78
2023/08/25 12:04:22;;;;;;;5.45;5.15;;;28.70;52.90;;;;;;6199769;28;20311;-80
2023/08/25 12:07:26;;;;;;;6.15;5.75;;;28.90;53.00;;;;;;6198710;28;20322;-79
2023/08/25 12:10:33;;;;;;;6.15;5.80;;;28.70;53.30;;;;;;6195642;28;20723;-78
2023/08/25 12:13:43;;;;;;;6.32;6.00;;;28.80;53.50;;;;;;6205031;28;20747;-76
2023/08/25 12:16:47;;;;;;;6.20;5.45;;;28.80;53.90;;;;;;6203087;28;20561;-80
2023/08/25 12:19:50;;;;;;;7.72;6.32;;;28.80;53.30;;;;;;6192948;28;20311;-79
2023/08/25 12:22:57;;;;;;;6.70;6.20;;;28.80;53.30;;;;;;6198552;28;20235;-78
2023/08/25 12:26:00;;;;;;;7.55;5.55;;;28.60;54.40;;;;;;6210274;28;20379;-79
2023/08/25 12:29:07;;;;;;;6.45;5.93;;;28.90;53.10;;;;;;6208607;28;20243;-80
2023/08/25 12:32:10;;;;;;;5.97;5.68;;;28.60;53.40;;;;;;6206398;28;20239;-78
2023/08/25 12:35:13;;;;;;;8.13;5.82;;;28.80;53.50;;;;;;6210751;28;20235;-79
2023/08/25 12:38:17;;;;;;;7.50;6.97;;;28.50;53.50;;;;;;6201396;28;20749;-81
2023/08/25 12:41:20;;;;;;;6.25;5.75;;;28.60;53.90;;;;;;6205817;28;20227;-80
2023/08/25 12:44:24;;;;;;;5.63;5.22;;;28.30;54.30;;;;;;6205042;28;20235;-81
2023/08/25 12:47:28;;;;;;;4.80;4.50;;;28.30;54.30;;;;;;6205343;28;20739;-80
2023/08/25 12:50:31;;;;;;;5.70;5.30;;;28.30;54.00;;;;;;6209162;28;20239;-78
2023/08/25 12:53:34;;;;;;;7.37;6.77;;;28.10;54.40;;;;;;6202528;28;20262;-79
2023/08/25 12:56:37;;;;;;;5.40;5.10;;;27.90;55.00;;;;;;6209551;28;20235;-79
2023/08/25 12:59:42;;;;;;;5.37;4.97;;;27.80;54.50;;;;;;6208340;28;20259;-76
2023/08/25 13:02:45;;;;;;;5.50;5.00;;;27.90;54.60;;;;;;6204691;28;20327;-78
2023/08/25 13:05:48;;;;;;;5.80;5.37;;;28.00;55.00;;;;;;6211727;28;20242;-79
2023/08/25 13:08:51;;;;;;;5.83;5.57;;;27.90;54.70;;;;;;6213705;28;20247;-79
2023/08/25 13:11:54;;;;;;;6.30;5.90;;;27.80;55.00;;;;;;6210462;28;20765;-77
2023/08/25 13:14:59;;;;;;;6.10;5.60;;;27.80;55.40;;;;;;6219914;28;20239;-80
2023/08/25 13:18:02;;;;;;;7.27;5.57;;;27.70;55.30;;;;;;6212760;28;20246;-82
2023/08/25 13:21:06;;;;;;;7.07;6.57;;;27.60;55.50;;;;;;6218185;28;20334;-82
2023/08/25 13:24:09;;;;;;;7.97;6.70;;;27.50;56.00;;;;;;6196372;28;20328;-84
2023/08/25 13:27:12;;;;;;;8.97;6.30;;;27.30;56.70;;;;;;6203743;28;20323;-83
2023/08/25 13:30:17;;;;;;;11.67;7.03;;;27.00;57.30;;;;;;6203981;28;20259;-81
2023/08/25 13:33:20;;;;;;;7.60;6.70;;;26.80;59.50;;;;;;6208806;28;20305;-79
2023/08/25 13:36:23;;;;;;;10.13;7.17;;;26.70;60.90;;;;;;6206625;28;20370;-77
2023/08/25 13:39:26;;;;;;;7.53;6.90;;;26.60;60.40;;;;;;6213009;28;20244;-77
2023/08/25 13:42:29;;;;;;;8.37;7.53;;;26.70;60.50;;;;;;6205352;28;20285;-78
2023/08/25 13:45:34;;;;;;;7.93;6.57;;;26.60;60.80;;;;;;6204403;28;20243;-78
2023/08/25 13:48:37;;;;;;;12.90;7.10;;;26.40;61.70;;;;;;6215034;28;20245;-76
2023/08/25 13:51:40;;;;;;;7.80;7.13;;;26.50;61.00;;;;;;6215204;28;20334;-76
2023/08/25 13:54:43;;;;;;;7.00;6.37;;;26.50;60.90;;;;;;6194384;28;20262;-78
2023/08/25 13:57:47;;;;;;;7.90;7.23;;;26.40;61.00;;;;;;6195061;28;20338;-78
2023/08/25 14:00:54;;;;;;;8.23;7.37;;;26.40;61.30;;;;;;6215678;28;20246;-77
2023/08/25 14:03:57;;;;;;;8.03;7.40;;;26.20;62.10;;;;;;6204082;28;20246;-79
2023/08/25 14:07:00;;;;;;;11.53;8.00;;;26.10;63.40;;;;;;6214043;28;20454;-77
2023/08/25 14:10:04;;;;;;;9.30;7.30;;;26.00;64.70;;;;;;6203418;28;20326;-83
2023/08/25 14:13:08;;;;;;;8.07;7.50;;;25.90;64.70;;;;;;6205387;28;21253;-80
2023/08/25 14:16:12;;;;;;;7.90;7.20;;;25.90;65.50;;;;;;6209974;28;20882;-77
2023/08/25 14:19:15;;;;;;;8.60;7.80;;;26.00;65.70;;;;;;6220676;28;20239;-78
2023/08/25 14:22:18;;;;;;;9.97;9.27;;;26.00;65.70;;;;;;6175721;28;20674;-80
2023/08/25 14:25:22;;;;;;;10.37;9.60;;;26.00;65.80;;;;;;6190459;28;20232;-81
2023/08/25 14:28:25;;;;;;;9.10;8.37;;;25.80;66.60;;;;;;6182178;28;20260;-81
2023/08/25 14:31:29;;;;;;;9.57;8.80;;;25.80;66.40;;;;;;6177922;28;20311;-82
2023/08/25 14:34:34;;;;;;;8.33;7.73;;;25.80;67.20;;;;;;6208290;28;20239;-78
2023/08/25 14:37:37;;;;;;;9.07;8.37;;;25.80;66.40;;;;;;6212273;28;20245;-78
2023/08/25 14:40:40;;;;;;;8.50;8.00;;;25.80;66.30;;;;;;6212690;28;20239;-81
2023/08/25 14:43:45;;;;;;;8.97;8.13;;;25.90;66.30;;;;;;6206153;28;20322;-80
2023/08/25 14:46:49;;;;;;;10.20;8.33;;;26.00;65.80;;;;;;6213497;28;20335;-81
2023/08/25 14:49:53;;;;;;;10.20;8.73;;;26.20;66.50;;;;;;6211496;28;20309;-79
2023/08/25 14:52:56;;;;;;;10.00;9.20;;;26.40;65.30;;;;;;6199787;28;20867;-80
2023/08/25 14:56:00;;;;;;;9.87;8.40;;;26.40;65.50;;;;;;6207094;28;20326;-81
2023/08/25 14:59:03;;;;;;;7.77;7.30;;;26.50;64.50;;;;;;6205995;28;20240;-81
2023/08/25 15:02:08;;;;;;;7.90;7.20;;;26.40;64.70;;;;;;6205873;28;20249;-79
2023/08/25 15:05:11;;;;;;;9.73;8.83;;;26.30;64.60;;;;;;6206225;28;20240;-79
2023/08/25 15:08:15;;;;;;;9.27;8.53;;;26.20;65.40;;;;;;6209558;28;20274;-81
2023/08/25 15:11:18;;;;;;;9.10;8.50;;;26.00;65.00;;;;;;6212249;28;20236;-81
2023/08/25 15:14:21;;;;;;;9.17;8.33;;;26.00;65.40;;;;;;6206614;28;20309;-81
2023/08/25 15:17:26;;;;;;;10.17;9.50;;;26.10;65.30;;;;;;6210519;28;20277;-82
2023/08/25 15:20:29;;;;;;;8.70;8.10;;;26.20;65.00;;;;;;6213624;28;20235;-82
2023/08/25 15:23:33;;;;;;;12.30;8.87;;;26.20;65.50;;;;;;6214814;28;20250;-79
2023/08/25 15:26:36;;;;;;;8.63;7.80;;;26.20;64.30;;;;;;6211540;28;20751;-82
2023/08/25 15:29:40;;;;;;;7.47;7.07;;;26.30;64.10;;;;;;6201339;28;20362;-80
2023/08/25 15:32:55;;;;;;;10.23;9.27;;;26.40;64.20;;;;;;6208718;28;20243;-81
2023/08/25 15:35:58;;;;;;;7.70;7.27;;;26.30;64.50;;;;;;6199442;28;20239;-84
2023/08/25 15:39:03;;;;;;;8.53;7.73;;;26.30;64.60;;;;;;6209428;28;20239;-80
2023/08/25 15:42:06;;;;;;;9.23;8.57;;;26.40;64.20;;;;;;6203508;28;20243;-80
2023/08/25 15:45:10;;;;;;;9.13;8.23;;;26.40;63.70;;;;;;6213903;28;20243;-82
2023/08/25 15:48:15;;;;;;;8.70;8.00;;;26.20;64.10;;;;;;6205473;28;20247;-81
2023/08/25 15:51:18;;;;;;;8.27;7.40;;;26.20;64.20;;;;;;6208533;28;20873;-81
2023/08/25 15:54:21;;;;;;;8.40;7.90;;;26.20;64.50;;;;;;6208219;28;20246;-82
2023/08/25 15:57:24;;;;;;;8.50;7.83;;;26.20;64.20;;;;;;6208232;28;20854;-81
2023/08/25 16:00:45;;;;;;;11.67;7.90;;;26.10;64.50;;;;;;6203430;28;20263;-81